Flight Track Log - Related Links

Times and Time Zones

All times are in EST time to prevent confusion due to time zone crossing. See the AAY894 flight status page for this flight to view local times or setup timezone preferences in your user account.

Time Position Orientation Groundspeed Altitude Reporting Facility
EST Latitude Longitude Course Direction KTS MPH feet Rate Location/Type
Thu 08:24:20 27.9333 -82.7000 24° Northeast 151 174 1,200  Level Tampa TRACON
Thu 08:25:20 27.9667 -82.6833 24° Northeast 164 189 3,200 1,600 Climbing Tampa TRACON
Thu 08:26:20 28.0333 -82.6500 24° Northeast 245 282 4,400 2,116 Climbing Tampa TRACON
Thu 08:28:30 28.1872 -82.6500 360° North 276 318 9,900 2,400 Climbing Jacksonville Center
Thu 08:29:30 28.2708 -82.6475 North 281 323 12,000 1,150 Climbing Jacksonville Center
Thu 08:30:30 28.3731 -82.6425 North 318 366 12,200 1,150 Climbing Jacksonville Center
Thu 08:31:30 28.4772 -82.6375 North 355 409 14,300 2,550 Climbing Jacksonville Center
Thu 08:32:30 28.5817 -82.6350 North 369 425 17,300 2,150 Climbing Jacksonville Center
Thu 08:33:30 28.6944 -82.6300 North 369 425 18,600 1,350 Climbing Jacksonville Center
Thu 08:34:30 28.8092 -82.6247 North 380 437 20,000 850 Climbing Jacksonville Center
Thu 08:35:30 28.9239 -82.6175 North 399 459 20,300 550 Climbing Jacksonville Center
Thu 08:36:30 29.0367 -82.6147 North 399 459 21,100 1,250 Climbing Jacksonville Center
Thu 08:37:30 29.1494 -82.6333 352° North 399 459 22,800 1,450 Climbing Jacksonville Center
Thu 08:38:30 29.2642 -82.6522 352° North 410 472 24,000 1,150 Climbing Jacksonville Center
Thu 08:39:30 29.3811 -82.6733 351° North 423 487 25,100 1,091 Climbing Jacksonville Center
Thu 08:40:31 29.5106 -82.6969 351° North 434 499 26,200 1,150 Climbing Jacksonville Center
Thu 08:41:30 29.6422 -82.7206 351° North 461 531 27,400 1,300 Climbing Jacksonville Center
Thu 08:42:31 29.7675 -82.7394 353° North 466 536 28,800 1,300 Climbing Jacksonville Center
Thu 08:43:30 29.9011 -82.7417 359° North 466 536 30,000 1,109 Climbing Jacksonville Center
Thu 08:44:30 30.0347 -82.7222 North 476 548 31,000 496 Climbing Jacksonville Center
Thu 08:45:31 30.1558 -82.7028 North 483 556 31,000 -50 Level Jacksonville Center
Thu 08:46:30 30.2936 -82.6808 North 483 556 30,900  Descending Jacksonville Center
Thu 08:47:30 30.4292 -82.6589 North 483 556 31,000 50 Climbing Jacksonville Center
Thu 08:48:31 30.5775 -82.6392 North 483 556 31,000  Level Jacksonville Center
Thu 08:49:30 30.6964 -82.6244 North 483 556 31,000  Level Jacksonville Center
Thu 08:50:30 30.8342 -82.6047 North 483 556 31,000  Level Jacksonville Center
Thu 08:51:31 30.9678 -82.5825 North 483 556 31,000 -50 Level Jacksonville Center
Thu 08:52:30 31.1014 -82.5603 North 483 556 30,900 -50 Descending Jacksonville Center
Thu 08:53:30 31.2369 -82.5403 North 483 556 30,900 50 Level Jacksonville Center
Thu 08:54:30 31.3725 -82.5153 North 483 556 31,000 50 Climbing Jacksonville Center
Thu 08:55:31 31.5103 -82.4978 North 489 563 31,000  Level Jacksonville Center
Thu 08:56:30 31.6439 -82.4436 19° North 489 563 31,000  Level Jacksonville Center
Thu 08:57:30 31.7750 -82.3744 24° Northeast 502 578 31,000  Level Jacksonville Center
Thu 08:59:39 32.0642 -82.3036 12° North 481 554 31,000  Level Atlanta Center
Thu 09:00:39 32.2036 -82.2861 North 486 559 31,000  Level Atlanta Center
Thu 09:01:39 32.3517 -82.2686 North 486 559 31,000  Level Atlanta Center
Thu 09:02:39 32.4892 -82.2511 North 486 559 31,000  Level Atlanta Center
Thu 09:03:39 32.6286 -82.2261 North 497 572 31,000  Level Atlanta Center
Thu 09:04:39 32.7661 -82.1986 10° North 502 578 31,000  Level Atlanta Center
Thu 09:05:39 32.9056 -82.1683 10° North 502 578 31,000  Level Atlanta Center
Thu 09:06:39 33.0428 -82.1431 North 502 578 31,000  Level Atlanta Center
Thu 09:07:39 33.1697 -82.1156 10° North 507 583 31,000  Level Atlanta Center
Thu 09:08:39 33.3028 -82.0878 10° North 501 577 31,000  Level Atlanta Center
Thu 09:09:39 33.4444 -82.0597 North 501 577 31,000  Level Atlanta Center
Thu 09:10:39 33.5817 -82.0317 10° North 501 577 31,000  Level Atlanta Center
Thu 09:11:39 33.7211 -82.0008 10° North 501 577 31,000  Level Atlanta Center
Thu 09:12:39 33.8583 -81.9750 North 501 577 31,000  Level Atlanta Center
Thu 09:13:39 33.9975 -81.9442 10° North 501 577 31,000  Level Atlanta Center
Thu 09:14:39 34.1369 -81.9156 10° North 501 577 31,000  Level Atlanta Center
Thu 09:15:39 34.2764 -81.8894 North 501 577 31,000  Level Atlanta Center
Thu 09:16:39 34.4303 -81.8578 10° North 510 587 31,000  Level Atlanta Center
Thu 09:17:39 34.5694 -81.8289 10° North 510 587 31,000  Level Atlanta Center
Thu 09:18:39 34.6964 -81.8028 10° North 504 580 31,000  Level Atlanta Center
Thu 09:19:39 34.8378 -81.7789 North 504 580 31,000  Level Atlanta Center
Thu 09:20:39 34.9769 -81.7472 11° North 504 580 31,000  Level Atlanta Center
Thu 09:21:39 35.1142 -81.7131 12° North 504 580 31,000  Level Atlanta Center
Thu 09:22:39 35.2556 -81.6861 North 504 580 31,000  Level Atlanta Center
Thu 09:23:39 35.3967 -81.6542 10° North 504 580 31,000  Level Atlanta Center
Thu 09:24:39 35.5464 -81.6217 10° North 504 580 31,000  Level Atlanta Center
Thu 09:25:39 35.6833 -81.5919 10° North 504 580 31,000  Level Atlanta Center
Thu 09:26:39 35.8206 -81.5622 10° North 504 580 31,000  Level Atlanta Center
Thu 09:27:39 35.9597 -81.5322 10° North 504 580 31,000  Level Atlanta Center
Thu 09:28:39 36.0947 -81.5025 10° North 499 574 31,000  Level Atlanta Center
Thu 09:29:39 36.2336 -81.4697 11° North 499 574 31,000  Level Atlanta Center
Thu 09:30:39 36.3686 -81.4372 11° North 499 574 31,000  Level Atlanta Center
Thu 09:31:39 36.5014 -81.4122 North 493 567 31,000  Level Atlanta Center
Thu 09:32:39 36.6364 -81.3792 11° North 493 567 31,000  Level Atlanta Center
Thu 09:33:39 36.7711 -81.3489 10° North 493 567 31,000  Level Atlanta Center
Thu 09:35:25 36.9964 -81.3022 North 482 555 31,000  Level Indianapolis Center
Thu 09:36:27 37.1386 -81.2703 10° North 480 552 31,000  Level Indianapolis Center
Thu 09:37:29 37.2708 -81.2397 10° North 482 555 31,000  Level Indianapolis Center
Thu 09:38:31 37.4106 -81.2086 10° North 484 557 31,000  Level Indianapolis Center
Thu 09:39:33 37.5400 -81.1808 10° North 483 556 31,000  Level Indianapolis Center
Thu 09:40:35 37.6642 -81.1508 11° North 470 541 31,000  Level Indianapolis Center
Thu 09:41:37 37.8131 -81.1156 11° North 464 534 31,000  Level Indianapolis Center
Thu 09:42:39 37.9456 -81.0783 12° North 472 543 31,000  Level Indianapolis Center
Thu 09:43:42 38.0731 -81.0403 13° North 473 544 31,000  Level Indianapolis Center
Thu 09:44:44 38.2022 -81.0033 13° North 475 547 31,000  Level Indianapolis Center
Thu 09:45:46 38.3311 -80.9644 13° North 479 551 31,000  Level Indianapolis Center
Thu 09:46:48 38.4608 -80.9267 13° North 480 552 31,000  Level Indianapolis Center
Thu 09:47:50 38.5897 -80.8897 13° North 478 550 31,000  Level Indianapolis Center
Thu 09:48:52 38.7422 -80.8436 13° North 473 544 31,000  Level Indianapolis Center
Thu 09:49:54 38.8703 -80.8064 13° North 474 545 31,000 -339 Level Indianapolis Center
Thu 09:50:56 39.0006 -80.7667 13° North 477 549 30,300 -823 Descending Indianapolis Center
Thu 09:51:58 39.1244 -80.7311 13° North 470 541 29,300 -629 Descending Indianapolis Center
Thu 09:53:00 39.2433 -80.6942 14° North 447 514 29,000 -145 Descending Indianapolis Center
Thu 09:54:02 39.3914 -80.6492 13° North 453 521 29,000  Level Indianapolis Center
Thu 09:55:04 39.5153 -80.6125 13° North 456 525 29,000  Level Indianapolis Center
Thu 09:56:06 39.6389 -80.5750 13° North 456 525 29,000  Level Indianapolis Center
Thu 09:56:45 39.7264 -80.5508 12° North 455 524 29,000  Level Cleveland Center
Thu 09:57:47 39.8489 -80.5133 13° North 454 522 29,000  Level Cleveland Center
Thu 09:58:48 39.9692 -80.4767 13° North 447 514 29,000  Level Cleveland Center
Thu 09:59:50 40.0900 -80.4403 13° North 444 511 29,000  Level Cleveland Center
Thu 10:00:52 40.2111 -80.4028 13° North 445 512 29,000  Level Cleveland Center
Thu 10:01:53 40.3350 -80.3639 13° North 445 512 29,000  Level Cleveland Center
Thu 10:02:55 40.4567 -80.3275 13° North 447 514 29,000  Level Cleveland Center
Thu 10:03:57 40.5767 -80.2900 13° North 445 512 29,000  Level Cleveland Center
Thu 10:04:58 40.6969 -80.2514 14° North 445 512 29,000  Level Cleveland Center
Thu 10:06:00 40.8411 -80.2036 14° North 445 512 29,000  Level Cleveland Center
Thu 10:07:02 40.9367 -80.1319 30° Northeast 466 536 29,000 -341 Level Cleveland Center
Thu 10:08:03 41.0772 -80.0306 29° Northeast 478 550 28,300 -780 Descending Cleveland Center
Thu 10:09:05 41.1917 -79.9489 28° Northeast 483 556 27,400 -919 Descending Cleveland Center
Thu 10:10:07 41.3100 -79.8614 29° Northeast 487 560 26,400 -968 Descending Cleveland Center
Thu 10:11:09 41.4281 -79.7758 29° Northeast 483 556 25,400 -976 Descending Cleveland Center
Thu 10:12:10 41.5422 -79.6919 29° Northeast 473 544 24,400 -1,171 Descending Cleveland Center
Thu 10:13:12 41.6814 -79.5881 29° Northeast 474 545 23,000 -1,452 Descending Cleveland Center
Thu 10:14:14 41.7956 -79.5208 24° Northeast 449 517 21,400 -1,659 Descending Cleveland Center
Thu 10:15:15 41.9083 -79.4750 17° North 426 490 19,600 -1,756 Descending Cleveland Center
Thu 10:16:17 42.0206 -79.4278 17° North 421 484 17,800 -1,694 Descending Cleveland Center
Thu 10:17:19 42.1325 -79.4250 North 401 461 16,100 -1,707 Descending Cleveland Center
Thu 10:18:20 42.2367 -79.4219 North 376 433 14,300 -1,220 Descending Cleveland Center
Thu 10:19:22 42.3317 -79.4211 360° North 346 398 13,600 -823 Descending Cleveland Center
Thu 10:20:24 42.4281 -79.4183 North 346 398 12,600 -1,113 Descending Cleveland Center
Thu 10:21:26 42.5314 -79.4119 North 315 362 11,300 -878 Descending Cleveland Center
Thu 10:22:27 42.6128 -79.3997 North 296 341 10,800 -488 Descending Cleveland Center
Thu 10:23:29 42.6789 -79.3258 39° Northeast 311 358 10,300 -581 Descending Cleveland Center
Thu 10:24:31 42.7497 -79.2386 42° Northeast 307 353 9,600 -774 Descending Cleveland Center
Thu 10:25:33 42.8119 -79.1664 40° Northeast 306 352 8,700 -976 Descending Cleveland Center
Thu 10:26:34 42.8783 -79.0897 40° Northeast 301 346 7,600 -976 Descending Cleveland Center
Thu 10:27:36 42.9433 -79.0158 40° Northeast 294 338 6,700 -871 Descending Cleveland Center
Thu 10:28:38 43.0072 -78.9417 40° Northeast 290 334 5,800 -750 Descending Cleveland Center
Thu 10:29:36 43.0333 -78.8500 69° East 277 319 5,200 -661 Descending Buffalo TRACON
Thu 10:30:36 43.0667 -78.7500 65° Northeast 261 300 4,500 -744 Descending Buffalo TRACON
Thu 10:31:37 43.1000 -78.7000 48° Northeast 239 275 3,700 -793 Descending Buffalo TRACON
Thu 10:32:37 43.1167 -78.7667 289° West 175 201 2,900 -947 Descending Buffalo TRACON
Thu 10:33:31 43.1167 -78.8333 270° West 163 188 1,900 -789 Descending Buffalo TRACON
Thu 10:34:31 43.1167 -78.8667 270° West 105 121 1,400 -550 Descending Buffalo TRACON
Thu 10:35:31 43.1167 -78.9167 270° West 115 132 800 -600 Descending Buffalo TRACON

Login

Don't have an account? Register now (free) for customized features, flight alerts, and more!